Time;durP1;ratioP1;P1;durP2;ratioP2;P2;SDS_P1;SDS_P2;PMS_P1;PMS_P2;Temp;Humidity;BMP_temperature;BMP_pressure;BME280_temperature;BME280_humidity;BME280_pressure;Samples;Min_cycle;Max_cycle;Signal;HPM_P1;HPM_P2
2024/03/19 00:00:41;;;;;;;30.92;28.48;;;;;;;;;;4181383;28;20059;-57
2024/03/19 00:02:42;;;;;;;34.17;31.05;;;;;;;;;;4181313;28;20409;-56
2024/03/19 00:04:43;;;;;;;32.13;29.58;;;;;;;;;;4181023;28;20085;-58
2024/03/19 00:06:43;;;;;;;29.90;27.15;;;;;;;;;;4181253;28;20115;-57
2024/03/19 00:08:44;;;;;;;28.40;25.95;;;;;;;;;;4181146;28;20614;-57
2024/03/19 00:10:44;;;;;;;25.00;23.08;;;;;;;;;;4181020;28;20056;-57
2024/03/19 00:12:45;;;;;;;24.08;22.25;;;;;;;;;;4181340;28;20080;-56
2024/03/19 00:14:46;;;;;;;24.20;22.30;;;;;;;;;;4181119;28;20071;-57
2024/03/19 00:16:46;;;;;;;24.60;22.92;;;;;;;;;;4181064;28;20075;-57
2024/03/19 00:18:47;;;;;;;22.95;21.38;;;;;;;;;;4181192;28;20071;-57
2024/03/19 00:20:47;;;;;;;23.13;21.50;;;;;;;;;;4180924;28;20037;-57
2024/03/19 00:22:48;;;;;;;21.77;19.90;;;;;;;;;;4180949;28;20052;-57
2024/03/19 00:24:49;;;;;;;21.95;20.40;;;;;;;;;;4180950;28;20052;-58
2024/03/19 00:26:50;;;;;;;18.65;17.55;;;;;;;;;;4181154;28;20048;-55
2024/03/19 00:28:51;;;;;;;17.42;16.42;;;;;;;;;;4180768;28;20045;-57
2024/03/19 00:30:52;;;;;;;17.30;16.40;;;;;;;;;;4180875;28;20052;-57
2024/03/19 00:32:52;;;;;;;20.88;19.30;;;;;;;;;;4180830;28;20132;-56
2024/03/19 00:34:53;;;;;;;20.10;18.70;;;;;;;;;;4180744;28;20061;-57
2024/03/19 00:36:54;;;;;;;19.80;18.58;;;;;;;;;;4180646;28;20045;-57
2024/03/19 00:38:54;;;;;;;19.30;17.98;;;;;;;;;;4180652;28;20127;-56
2024/03/19 00:40:55;;;;;;;21.13;19.90;;;;;;;;;;4180721;28;20043;-58
2024/03/19 00:42:56;;;;;;;22.65;21.23;;;;;;;;;;4180708;28;20068;-57
2024/03/19 00:44:58;;;;;;;22.05;20.65;;;;;;;;;;4180407;28;20037;-57
2024/03/19 00:46:59;;;;;;;17.00;16.23;;;;;;;;;;4180482;28;20083;-57
2024/03/19 00:49:01;;;;;;;20.42;19.30;;;;;;;;;;4180404;28;20504;-57
2024/03/19 00:51:02;;;;;;;22.25;20.90;;;;;;;;;;4180488;28;20044;-57
2024/03/19 00:53:02;;;;;;;21.15;19.90;;;;;;;;;;4180563;28;20036;-57
2024/03/19 00:55:04;;;;;;;21.33;19.92;;;;;;;;;;4180530;28;20040;-57
2024/03/19 00:57:04;;;;;;;25.70;24.00;;;;;;;;;;4180549;28;20436;-57
2024/03/19 00:59:05;;;;;;;23.55;21.90;;;;;;;;;;4179791;28;20128;-56
2024/03/19 01:01:06;;;;;;;36.00;32.53;;;;;;;;;;4180093;28;20045;-57
2024/03/19 01:03:08;;;;;;;28.98;26.85;;;;;;;;;;4178647;28;20048;-55
2024/03/19 01:05:09;;;;;;;28.02;25.83;;;;;;;;;;4178797;28;20048;-56
2024/03/19 01:07:10;;;;;;;27.45;25.65;;;;;;;;;;4178935;28;20424;-56
2024/03/19 01:09:14;;;;;;;28.33;26.40;;;;;;;;;;4178523;28;20120;-56
2024/03/19 01:11:15;;;;;;;24.08;22.85;;;;;;;;;;4178491;28;20041;-55
2024/03/19 01:13:16;;;;;;;24.17;22.92;;;;;;;;;;4178522;28;20041;-56
2024/03/19 01:15:16;;;;;;;22.38;21.17;;;;;;;;;;4178579;28;20044;-57
2024/03/19 01:17:17;;;;;;;22.35;21.13;;;;;;;;;;4178397;28;20098;-57
2024/03/19 01:19:17;;;;;;;25.50;24.10;;;;;;;;;;4178992;28;20848;-57
2024/03/19 01:21:18;;;;;;;23.65;21.95;;;;;;;;;;4180002;28;20037;-57
2024/03/19 01:23:19;;;;;;;23.10;21.60;;;;;;;;;;4180031;28;20029;-56
2024/03/19 01:25:19;;;;;;;20.00;18.90;;;;;;;;;;4179944;28;20052;-57
2024/03/19 01:27:20;;;;;;;21.83;20.80;;;;;;;;;;4179936;28;20068;-57
2024/03/19 01:29:20;;;;;;;19.48;18.60;;;;;;;;;;4179835;28;20472;-57
2024/03/19 01:31:22;;;;;;;20.90;19.95;;;;;;;;;;4179765;28;20053;-57
2024/03/19 01:33:24;;;;;;;19.47;18.70;;;;;;;;;;4179828;28;20053;-57
2024/03/19 01:35:24;;;;;;;15.82;15.15;;;;;;;;;;4179796;28;20114;-57
2024/03/19 01:37:25;;;;;;;15.68;15.10;;;;;;;;;;4180049;28;20037;-57
2024/03/19 01:39:25;;;;;;;14.57;14.18;;;;;;;;;;4179790;28;20409;-57
2024/03/19 01:41:26;;;;;;;14.80;14.50;;;;;;;;;;4179617;28;20045;-57
2024/03/19 01:43:27;;;;;;;11.05;10.95;;;;;;;;;;4188911;28;20050;-57
2024/03/19 01:45:27;;;;;;;11.63;11.43;;;;;;;;;;4163458;28;20456;-57
2024/03/19 01:47:28;;;;;;;11.65;11.55;;;;;;;;;;4163190;28;20450;-56
2024/03/19 01:49:29;;;;;;;11.32;11.23;;;;;;;;;;4163009;28;20528;-56
2024/03/19 01:51:31;;;;;;;12.60;12.50;;;;;;;;;;4163211;28;20046;-57
2024/03/19 01:53:32;;;;;;;14.07;13.98;;;;;;;;;;4179677;28;20525;-57
2024/03/19 01:55:33;;;;;;;13.95;13.63;;;;;;;;;;4163048;28;20052;-57
2024/03/19 01:57:33;;;;;;;13.88;13.77;;;;;;;;;;4162351;28;20040;-57
2024/03/19 01:59:34;;;;;;;13.27;13.07;;;;;;;;;;4179559;28;20048;-57
2024/03/19 02:01:35;;;;;;;13.68;13.48;;;;;;;;;;4163376;28;20406;-56
2024/03/19 02:03:37;;;;;;;13.18;12.55;;;;;;;;;;4160108;23;20062;-57
2024/03/19 02:05:43;;;;;;;13.18;12.98;;;;;;;;;;4162918;28;20048;-57
2024/03/19 02:07:43;;;;;;;13.90;13.65;;;;;;;;;;4163040;28;20053;-57
2024/03/19 02:09:44;;;;;;;14.55;14.35;;;;;;;;;;4162879;28;20543;-57
2024/03/19 02:11:44;;;;;;;13.98;13.77;;;;;;;;;;4162424;28;20126;-57
2024/03/19 02:13:45;;;;;;;11.73;11.63;;;;;;;;;;4162894;28;20436;-60
2024/03/19 02:15:46;;;;;;;13.50;13.27;;;;;;;;;;4162868;28;20512;-61
2024/03/19 02:17:47;;;;;;;14.85;14.63;;;;;;;;;;4162875;28;20072;-60
2024/03/19 02:19:48;;;;;;;14.43;14.10;;;;;;;;;;4162844;28;20092;-60
2024/03/19 02:21:48;;;;;;;14.52;14.07;;;;;;;;;;4162806;28;20037;-60
2024/03/19 02:23:49;;;;;;;14.13;13.82;;;;;;;;;;4162785;28;20426;-59
2024/03/19 02:25:49;;;;;;;22.10;21.02;;;;;;;;;;4162722;28;20145;-60
2024/03/19 02:27:50;;;;;;;23.15;21.98;;;;;;;;;;4163139;28;20045;-60
2024/03/19 02:29:51;;;;;;;21.95;20.98;;;;;;;;;;4162619;28;20444;-60
2024/03/19 02:31:51;;;;;;;20.38;19.17;;;;;;;;;;4162846;28;20053;-61
2024/03/19 02:33:52;;;;;;;17.85;17.00;;;;;;;;;;4162665;28;20075;-60
2024/03/19 02:35:52;;;;;;;14.80;13.90;;;;;;;;;;4162560;28;20041;-60
2024/03/19 02:37:53;;;;;;;15.50;14.90;;;;;;;;;;4162720;28;20037;-59
2024/03/19 02:39:54;;;;;;;16.42;16.02;;;;;;;;;;4162593;28;20053;-60
2024/03/19 02:41:54;;;;;;;20.35;19.38;;;;;;;;;;4161834;28;20044;-60
2024/03/19 02:43:55;;;;;;;18.00;17.20;;;;;;;;;;4150480;28;20121;-60
2024/03/19 02:45:55;;;;;;;19.02;18.25;;;;;;;;;;4162638;28;20053;-60
2024/03/19 02:47:56;;;;;;;16.10;15.70;;;;;;;;;;4153443;28;20045;-60
2024/03/19 02:49:56;;;;;;;16.85;16.42;;;;;;;;;;4153676;28;20046;-60
2024/03/19 02:51:57;;;;;;;18.80;18.30;;;;;;;;;;4162575;28;20079;-60
2024/03/19 02:53:58;;;;;;;18.50;17.80;;;;;;;;;;4162569;28;20041;-60
2024/03/19 02:55:58;;;;;;;16.92;16.42;;;;;;;;;;4162369;28;20056;-60
2024/03/19 02:57:59;;;;;;;18.95;18.27;;;;;;;;;;4162508;28;20056;-60
2024/03/19 02:59:59;;;;;;;18.83;18.13;;;;;;;;;;4162471;28;20034;-60
2024/03/19 03:02:00;;;;;;;15.32;14.95;;;;;;;;;;4162218;28;20084;-60
2024/03/19 03:04:00;;;;;;;14.00;13.52;;;;;;;;;;4175252;28;20508;-60
2024/03/19 03:06:01;;;;;;;12.38;12.13;;;;;;;;;;4185376;28;20037;-60
2024/03/19 03:08:02;;;;;;;11.30;11.07;;;;;;;;;;4195162;28;20123;-59
2024/03/19 03:10:03;;;;;;;14.90;14.43;;;;;;;;;;4195077;28;20059;-60
2024/03/19 03:12:04;;;;;;;14.35;13.85;;;;;;;;;;4195491;28;20053;-60
2024/03/19 03:14:04;;;;;;;15.77;15.20;;;;;;;;;;4195560;28;20116;-60
2024/03/19 03:16:05;;;;;;;16.10;15.40;;;;;;;;;;4195437;28;20033;-60
2024/03/19 03:18:06;;;;;;;17.52;16.55;;;;;;;;;;4195633;28;20108;-60
2024/03/19 03:20:07;;;;;;;16.13;15.52;;;;;;;;;;4195360;28;20419;-60
2024/03/19 03:22:07;;;;;;;16.48;15.93;;;;;;;;;;4195690;28;20404;-60
2024/03/19 03:24:08;;;;;;;17.27;16.58;;;;;;;;;;4198566;28;20124;-56
2024/03/19 03:26:10;;;;;;;16.40;15.70;;;;;;;;;;4197647;28;20083;-57
2024/03/19 03:28:10;;;;;;;16.20;15.40;;;;;;;;;;4198288;28;20066;-57
2024/03/19 03:30:11;;;;;;;14.18;13.60;;;;;;;;;;4198200;28;20527;-57
2024/03/19 03:32:12;;;;;;;15.55;15.10;;;;;;;;;;4198327;28;20040;-57
2024/03/19 03:34:12;;;;;;;8.85;8.75;;;;;;;;;;4190045;28;20052;-56
2024/03/19 03:36:13;;;;;;;13.18;12.88;;;;;;;;;;4181472;28;20049;-57
2024/03/19 03:38:14;;;;;;;10.50;10.27;;;;;;;;;;4181743;28;20044;-58
2024/03/19 03:40:17;;;;;;;8.80;8.57;;;;;;;;;;4181584;28;20045;-58
2024/03/19 03:42:18;;;;;;;7.60;7.50;;;;;;;;;;4181798;28;20037;-57
2024/03/19 03:44:19;;;;;;;9.85;9.75;;;;;;;;;;4181648;28;20103;-58
2024/03/19 03:46:19;;;;;;;8.77;8.68;;;;;;;;;;4181629;28;20056;-57
2024/03/19 03:48:20;;;;;;;7.25;6.97;;;;;;;;;;4173844;28;20041;-57
2024/03/19 03:50:21;;;;;;;6.28;6.18;;;;;;;;;;4164886;28;20057;-57
2024/03/19 03:52:21;;;;;;;7.63;7.53;;;;;;;;;;4177847;28;20560;-57
2024/03/19 03:54:22;;;;;;;10.52;9.98;;;;;;;;;;4181490;28;20051;-57
2024/03/19 03:56:22;;;;;;;10.38;10.07;;;;;;;;;;4181197;28;20044;-57
2024/03/19 03:58:23;;;;;;;11.43;11.00;;;;;;;;;;4181384;28;20068;-57
2024/03/19 04:00:23;;;;;;;11.70;11.40;;;;;;;;;;4181347;28;20419;-57
2024/03/19 04:02:24;;;;;;;11.20;10.90;;;;;;;;;;4181230;28;20120;-56
2024/03/19 04:04:24;;;;;;;10.88;10.45;;;;;;;;;;4181063;28;20102;-57
2024/03/19 04:06:25;;;;;;;9.35;9.25;;;;;;;;;;4169885;28;20072;-57
2024/03/19 04:08:26;;;;;;;11.80;11.68;;;;;;;;;;4164770;28;20048;-56
2024/03/19 04:10:26;;;;;;;11.95;11.65;;;;;;;;;;4164704;28;20053;-57
2024/03/19 04:12:27;;;;;;;11.48;11.10;;;;;;;;;;4181330;28;20073;-57
2024/03/19 04:14:27;;;;;;;11.35;11.07;;;;;;;;;;4164624;28;20053;-57
2024/03/19 04:16:28;;;;;;;11.20;10.82;;;;;;;;;;4164667;28;20041;-57
2024/03/19 04:18:28;;;;;;;9.73;9.55;;;;;;;;;;4164619;28;20041;-58
2024/03/19 04:20:30;;;;;;;9.93;9.82;;;;;;;;;;4164495;28;20042;-57
2024/03/19 04:22:35;;;;;;;9.27;9.18;;;;;;;;;;4164563;28;20100;-56
2024/03/19 04:24:36;;;;;;;9.82;9.63;;;;;;;;;;4164503;28;20046;-57
2024/03/19 04:26:38;;;;;;;9.18;8.77;;;;;;;;;;4164410;28;20076;-57
2024/03/19 04:28:38;;;;;;;9.95;9.65;;;;;;;;;;4164360;28;20044;-57
2024/03/19 04:30:39;;;;;;;18.15;16.25;;;;;;;;;;4173897;28;20052;-57
2024/03/19 04:32:39;;;;;;;17.80;16.35;;;;;;;;;;4180745;28;20048;-57
2024/03/19 04:34:40;;;;;;;10.88;10.68;;;;;;;;;;4180195;28;20423;-60
2024/03/19 04:36:41;;;;;;;12.52;12.02;;;;;;;;;;4180924;28;20611;-59
2024/03/19 04:38:41;;;;;;;13.02;12.73;;;;;;;;;;4180940;28;20049;-60
2024/03/19 04:40:42;;;;;;;10.80;10.68;;;;;;;;;;4180615;28;20511;-60
2024/03/19 04:42:42;;;;;;;9.90;9.80;;;;;;;;;;4164267;28;20046;-60
2024/03/19 04:44:43;;;;;;;9.63;9.48;;;;;;;;;;4180690;28;20039;-60
2024/03/19 04:46:44;;;;;;;12.52;12.02;;;;;;;;;;4180698;28;20069;-60
2024/03/19 04:48:45;;;;;;;9.52;9.43;;;;;;;;;;4180604;28;20045;-60
2024/03/19 04:50:45;;;;;;;9.15;9.05;;;;;;;;;;4180715;28;20579;-59
2024/03/19 04:52:46;;;;;;;7.57;7.38;;;;;;;;;;4180376;28;20052;-59
2024/03/19 04:54:47;;;;;;;8.50;8.40;;;;;;;;;;4180511;28;20048;-59
2024/03/19 04:56:47;;;;;;;10.20;10.10;;;;;;;;;;4180394;28;20076;-59
2024/03/19 04:58:48;;;;;;;9.68;9.40;;;;;;;;;;4180565;28;20045;-59
2024/03/19 05:00:49;;;;;;;13.35;12.57;;;;;;;;;;4180343;28;20041;-60
2024/03/19 05:02:49;;;;;;;15.60;15.10;;;;;;;;;;4179995;28;20524;-59
2024/03/19 05:04:50;;;;;;;15.75;15.50;;;;;;;;;;4180456;28;20420;-60
2024/03/19 05:06:50;;;;;;;9.88;9.45;;;;;;;;;;4180303;28;20037;-60
2024/03/19 05:08:51;;;;;;;14.30;13.85;;;;;;;;;;4180340;28;20408;-59
2024/03/19 05:10:51;;;;;;;15.40;15.07;;;;;;;;;;4180229;28;20036;-60
2024/03/19 05:12:52;;;;;;;13.95;13.55;;;;;;;;;;4180246;28;20053;-59
2024/03/19 05:14:53;;;;;;;9.82;9.63;;;;;;;;;;4180448;28;20045;-59
2024/03/19 05:16:53;;;;;;;8.55;8.45;;;;;;;;;;4179927;28;20477;-60
2024/03/19 05:18:54;;;;;;;7.95;7.85;;;;;;;;;;4180140;28;20108;-60
2024/03/19 05:20:54;;;;;;;8.38;8.27;;;;;;;;;;4180184;28;20124;-60
2024/03/19 05:22:55;;;;;;;6.53;6.43;;;;;;;;;;4180172;28;20116;-60
2024/03/19 05:24:55;;;;;;;7.82;7.72;;;;;;;;;;4180147;28;20322;-59
2024/03/19 05:26:56;;;;;;;6.93;6.72;;;;;;;;;;4180168;28;20611;-58
2024/03/19 05:28:57;;;;;;;8.13;7.88;;;;;;;;;;4179818;28;20045;-60
2024/03/19 05:30:57;;;;;;;10.07;9.88;;;;;;;;;;4172988;28;20037;-60
2024/03/19 05:32:58;;;;;;;8.70;8.48;;;;;;;;;;4174235;28;20148;-60
2024/03/19 05:34:58;;;;;;;7.53;7.43;;;;;;;;;;4180228;28;20049;-60
2024/03/19 05:37:00;;;;;;;8.57;8.48;;;;;;;;;;4173520;28;20041;-59
2024/03/19 05:39:00;;;;;;;10.63;10.43;;;;;;;;;;4177126;28;20051;-60
2024/03/19 05:41:01;;;;;;;12.50;12.10;;;;;;;;;;4182076;28;20120;-60
2024/03/19 05:43:02;;;;;;;12.68;12.38;;;;;;;;;;4179649;28;20120;-59
2024/03/19 05:45:04;;;;;;;12.70;12.40;;;;;;;;;;4179196;28;20459;-59
2024/03/19 05:47:05;;;;;;;11.45;11.25;;;;;;;;;;4173196;28;20049;-59
2024/03/19 05:49:05;;;;;;;12.82;12.32;;;;;;;;;;4179337;28;20040;-59
2024/03/19 05:51:07;;;;;;;14.00;13.65;;;;;;;;;;4179588;28;20045;-59
2024/03/19 05:53:08;;;;;;;11.27;10.90;;;;;;;;;;4177498;28;20037;-59
2024/03/19 05:55:09;;;;;;;11.77;11.45;;;;;;;;;;4179353;28;20536;-57
2024/03/19 05:57:10;;;;;;;13.95;13.65;;;;;;;;;;4167678;28;20044;-56
2024/03/19 05:59:11;;;;;;;15.90;15.52;;;;;;;;;;4162519;28;20037;-57
2024/03/19 06:01:12;;;;;;;16.60;16.20;;;;;;;;;;4171695;28;20045;-58
2024/03/19 06:03:13;;;;;;;17.88;17.50;;;;;;;;;;4169973;28;20100;-56
2024/03/19 06:05:13;;;;;;;18.85;18.23;;;;;;;;;;4189665;28;20508;-57
2024/03/19 06:07:14;;;;;;;16.15;15.77;;;;;;;;;;4177876;28;20124;-56
2024/03/19 06:09:15;;;;;;;15.95;15.63;;;;;;;;;;4174118;28;20049;-56
2024/03/19 06:11:19;;;;;;;14.82;14.52;;;;;;;;;;4178289;28;20671;-57
2024/03/19 06:13:19;;;;;;;16.15;15.55;;;;;;;;;;4169850;28;20045;-57
2024/03/19 06:15:20;;;;;;;14.40;13.80;;;;;;;;;;4176786;28;20076;-57
2024/03/19 06:17:21;;;;;;;14.73;14.43;;;;;;;;;;4177063;28;20405;-57
2024/03/19 06:19:22;;;;;;;15.48;15.13;;;;;;;;;;4174294;28;20053;-57
2024/03/19 06:21:22;;;;;;;14.38;14.05;;;;;;;;;;4178913;28;20041;-57
2024/03/19 06:23:24;;;;;;;17.77;16.95;;;;;;;;;;4178987;28;20480;-58
2024/03/19 06:25:25;;;;;;;17.13;16.42;;;;;;;;;;4178958;28;20045;-56
2024/03/19 06:27:26;;;;;;;21.17;19.92;;;;;;;;;;4179227;28;20468;-57
2024/03/19 06:29:26;;;;;;;16.95;16.13;;;;;;;;;;4179213;28;20530;-57
2024/03/19 06:31:27;;;;;;;16.42;15.93;;;;;;;;;;4179175;28;20124;-57
2024/03/19 06:33:27;;;;;;;15.88;15.38;;;;;;;;;;4179004;28;20492;-57
2024/03/19 06:35:30;;;;;;;17.65;17.15;;;;;;;;;;4179056;28;20498;-57
2024/03/19 06:37:31;;;;;;;15.85;15.40;;;;;;;;;;4178862;28;20053;-57
2024/03/19 06:39:32;;;;;;;17.77;17.00;;;;;;;;;;4176514;28;20067;-57
2024/03/19 06:41:32;;;;;;;14.80;14.13;;;;;;;;;;4177062;28;20049;-57
2024/03/19 06:43:33;;;;;;;16.75;16.35;;;;;;;;;;4174427;28;20037;-58
2024/03/19 06:45:34;;;;;;;15.73;15.23;;;;;;;;;;4178541;28;20041;-57
2024/03/19 06:47:35;;;;;;;14.15;13.20;;;;;;;;;;4176715;28;20051;-56
2024/03/19 06:49:36;;;;;;;13.25;12.95;;;;;;;;;;4170739;28;20037;-58
2024/03/19 06:51:36;;;;;;;11.15;10.90;;;;;;;;;;4177329;28;20045;-57
2024/03/19 06:53:38;;;;;;;9.60;9.48;;;;;;;;;;4177172;28;20136;-57
2024/03/19 06:55:38;;;;;;;10.97;10.67;;;;;;;;;;4172454;28;20045;-57
2024/03/19 06:57:40;;;;;;;10.20;9.80;;;;;;;;;;4174883;28;20052;-58
2024/03/19 06:59:40;;;;;;;9.00;8.77;;;;;;;;;;4182532;28;20037;-56
2024/03/19 07:01:41;;;;;;;8.95;8.70;;;;;;;;;;4179631;28;20098;-69
2024/03/19 07:03:41;;;;;;;8.73;8.10;;;;;;;;;;4173968;28;20147;-68
2024/03/19 07:05:44;;;;;;;11.02;10.50;;;;;;;;;;4179376;28;20456;-70
2024/03/19 07:07:44;;;;;;;;;;;;;;;;;;4179391;28;20433;-70
2024/03/19 07:09:45;;;;;;;12.15;11.55;;;;;;;;;;4174851;28;20015;-70
2024/03/19 07:11:46;;;;;;;12.38;11.65;;;;;;;;;;4176948;28;20103;-70
2024/03/19 07:13:46;;;;;;;11.13;10.82;;;;;;;;;;4180717;28;20135;-70
2024/03/19 07:15:47;;;;;;;12.18;11.48;;;;;;;;;;4179821;28;20051;-70
2024/03/19 07:17:51;;;;;;;10.93;10.38;;;;;;;;;;4180398;28;20037;-70
2024/03/19 07:19:53;;;;;;;9.73;9.50;;;;;;;;;;4181440;28;20045;-70
2024/03/19 07:21:53;;;;;;;11.02;10.52;;;;;;;;;;4177963;28;20408;-70
2024/03/19 07:23:54;;;;;;;10.43;9.93;;;;;;;;;;4165318;28;20044;-70
2024/03/19 07:25:55;;;;;;;8.30;7.60;;;;;;;;;;4169789;28;20045;-70
2024/03/19 07:27:55;;;;;;;9.68;9.40;;;;;;;;;;4181811;28;20036;-70
2024/03/19 07:29:56;;;;;;;7.03;6.47;;;;;;;;;;4179800;28;20063;-70
2024/03/19 07:31:56;;;;;;;5.35;5.25;;;;;;;;;;4179874;28;20044;-69
2024/03/19 07:33:57;;;;;;;6.43;6.13;;;;;;;;;;4180427;28;20029;-69
2024/03/19 07:35:58;;;;;;;4.95;4.85;;;;;;;;;;4177429;28;20033;-69
2024/03/19 07:37:59;;;;;;;8.45;8.35;;;;;;;;;;4179581;28;20157;-69
2024/03/19 07:39:59;;;;;;;6.50;6.30;;;;;;;;;;4180888;28;20436;-69
2024/03/19 07:42:02;;;;;;;5.55;5.45;;;;;;;;;;4181262;28;20041;-69
2024/03/19 07:44:02;;;;;;;;;;;;;;;;;;4182120;28;20037;-69
2024/03/19 07:46:03;;;;;;;4.75;4.18;;;;;;;;;;4179291;28;20261;-68
2024/03/19 07:48:04;;;;;;;4.47;4.38;;;;;;;;;;4163642;28;20037;-68
2024/03/19 07:50:07;;;;;;;3.75;3.75;;;;;;;;;;4181349;28;20127;-69
2024/03/19 07:52:08;;;;;;;3.83;3.72;;;;;;;;;;4175489;28;20029;-68
2024/03/19 07:54:09;;;;;;;4.30;4.18;;;;;;;;;;4181439;28;20480;-68
2024/03/19 07:56:10;;;;;;;3.63;3.53;;;;;;;;;;4180224;28;20079;-68
2024/03/19 07:58:11;;;;;;;4.43;4.13;;;;;;;;;;4179169;28;20041;-68
2024/03/19 08:00:14;;;;;;;3.53;3.42;;;;;;;;;;4178307;28;20060;-68
2024/03/19 08:02:14;;;;;;;4.95;4.85;;;;;;;;;;4178857;28;20033;-68
2024/03/19 08:04:15;;;;;;;4.55;4.45;;;;;;;;;;4176464;28;20138;-68
2024/03/19 08:06:15;;;;;;;3.05;3.05;;;;;;;;;;4181388;28;20399;-68
2024/03/19 08:08:16;;;;;;;3.90;3.90;;;;;;;;;;4173924;28;20049;-68
2024/03/19 08:10:18;;;;;;;3.17;3.08;;;;;;;;;;4176695;28;20041;-68
2024/03/19 08:12:19;;;;;;;3.40;3.40;;;;;;;;;;4179538;28;20091;-68
2024/03/19 08:14:19;;;;;;;3.20;3.10;;;;;;;;;;4180948;28;20436;-68
2024/03/19 08:16:20;;;;;;;4.10;3.90;;;;;;;;;;4180686;28;20037;-68
2024/03/19 08:18:22;;;;;;;4.07;4.00;;;;;;;;;;4179919;28;20048;-68
2024/03/19 08:20:23;;;;;;;4.63;4.43;;;;;;;;;;4180429;28;20420;-68
2024/03/19 08:22:24;;;;;;;4.80;4.60;;;;;;;;;;4180532;28;20045;-68
2024/03/19 08:24:24;;;;;;;3.50;3.50;;;;;;;;;;4180706;28;20041;-65
2024/03/19 08:26:25;;;;;;;3.90;3.90;;;;;;;;;;4180709;28;20405;-65
2024/03/19 08:28:26;;;;;;;3.58;3.50;;;;;;;;;;4180435;28;20048;-66
2024/03/19 08:30:26;;;;;;;3.40;3.30;;;;;;;;;;4180470;28;20048;-65
2024/03/19 08:32:27;;;;;;;3.45;3.38;;;;;;;;;;4180346;28;20041;-65
2024/03/19 08:34:28;;;;;;;3.28;3.28;;;;;;;;;;4179949;28;20045;-68
2024/03/19 08:36:29;;;;;;;3.60;3.30;;;;;;;;;;4180448;28;20048;-68
2024/03/19 08:38:33;;;;;;;3.90;3.88;;;;;;;;;;4180656;28;20466;-67
2024/03/19 08:40:34;;;;;;;2.78;2.78;;;;;;;;;;4174861;28;20131;-67
2024/03/19 08:42:34;;;;;;;2.55;2.53;;;;;;;;;;4178849;28;20083;-68
2024/03/19 08:44:35;;;;;;;4.05;3.42;;;;;;;;;;4178349;28;20033;-67
2024/03/19 08:46:36;;;;;;;2.35;2.35;;;;;;;;;;4177647;28;20285;-67
2024/03/19 08:48:37;;;;;;;2.50;2.50;;;;;;;;;;4180605;28;20098;-67
2024/03/19 08:50:37;;;;;;;2.40;2.40;;;;;;;;;;4176245;28;20040;-67
2024/03/19 08:52:38;;;;;;;3.30;3.20;;;;;;;;;;4177422;28;20475;-67
2024/03/19 08:54:39;;;;;;;2.42;2.42;;;;;;;;;;4179265;28;20049;-67
2024/03/19 08:56:39;;;;;;;2.47;2.38;;;;;;;;;;4179413;28;20052;-67
2024/03/19 08:58:41;;;;;;;2.20;2.20;;;;;;;;;;4179970;28;20056;-67
2024/03/19 09:00:41;;;;;;;2.22;2.22;;;;;;;;;;4178477;28;20033;-67
2024/03/19 09:02:44;;;;;;;2.28;2.08;;;;;;;;;;4179130;28;20512;-66
2024/03/19 09:04:44;;;;;;;2.70;2.60;;;;;;;;;;4180152;28;20104;-66
2024/03/19 09:06:46;;;;;;;1.60;1.60;;;;;;;;;;4180299;28;20041;-67
2024/03/19 09:08:47;;;;;;;2.50;2.40;;;;;;;;;;4180228;28;20060;-66
2024/03/19 09:10:50;;;;;;;1.80;1.80;;;;;;;;;;4177238;28;20496;-66
2024/03/19 09:12:50;;;;;;;1.73;1.55;;;;;;;;;;4177397;28;20044;-66
2024/03/19 09:14:51;;;;;;;5.97;2.10;;;;;;;;;;4179684;28;20503;-67
2024/03/19 09:16:51;;;;;;;1.60;1.60;;;;;;;;;;4179208;28;20052;-67
2024/03/19 09:18:52;;;;;;;1.55;1.55;;;;;;;;;;4179127;28;20548;-67
2024/03/19 09:20:52;;;;;;;1.77;1.77;;;;;;;;;;4162718;28;20041;-66
2024/03/19 09:22:53;;;;;;;1.88;1.88;;;;;;;;;;4177634;28;20116;-66
2024/03/19 09:24:54;;;;;;;1.70;1.70;;;;;;;;;;4176295;28;20041;-67
2024/03/19 09:26:54;;;;;;;2.00;2.00;;;;;;;;;;4178887;28;20049;-67
2024/03/19 09:28:58;;;;;;;1.70;1.60;;;;;;;;;;4175752;28;20040;-66
2024/03/19 09:30:59;;;;;;;1.98;1.88;;;;;;;;;;4175544;28;20515;-66
2024/03/19 09:32:59;;;;;;;1.83;1.73;;;;;;;;;;4177258;28;20045;-67
2024/03/19 09:35:00;;;;;;;2.25;2.15;;;;;;;;;;4178174;28;20053;-66
2024/03/19 09:37:00;;;;;;;1.98;1.98;;;;;;;;;;4179516;28;20048;-66
2024/03/19 09:39:04;;;;;;;2.15;1.80;;;;;;;;;;4177469;28;20033;-66
2024/03/19 09:41:05;;;;;;;1.83;1.75;;;;;;;;;;4174494;28;20033;-66
2024/03/19 09:43:08;;;;;;;1.25;1.25;;;;;;;;;;4160799;28;20049;-67
2024/03/19 09:45:21;;;;;;;2.15;2.05;;;;;;;;;;4178278;28;20049;-65
2024/03/19 09:47:22;;;;;;;1.85;1.85;;;;;;;;;;4177870;28;20439;-66
2024/03/19 09:49:28;;;;;;;1.92;1.88;;;;;;;;;;4178654;28;20049;-66
2024/03/19 09:51:29;;;;;;;2.38;2.25;;;;;;;;;;4179034;28;20099;-65
2024/03/19 09:53:32;;;;;;;1.80;1.70;;;;;;;;;;4178971;28;20056;-66
2024/03/19 09:55:33;;;;;;;1.77;1.70;;;;;;;;;;4179724;28;20049;-66
2024/03/19 09:57:33;;;;;;;1.60;1.60;;;;;;;;;;4178750;28;20512;-65
2024/03/19 09:59:34;;;;;;;2.17;1.75;;;;;;;;;;4179325;28;20069;-66
2024/03/19 10:01:35;;;;;;;1.77;1.45;;;;;;;;;;4178147;28;20037;-65
2024/03/19 10:03:36;;;;;;;1.70;1.48;;;;;;;;;;4177029;28;20096;-65
2024/03/19 10:05:36;;;;;;;1.40;1.40;;;;;;;;;;4177687;28;20490;-66
2024/03/19 10:07:37;;;;;;;1.65;1.35;;;;;;;;;;4176273;28;20051;-65
2024/03/19 10:09:37;;;;;;;1.73;1.73;;;;;;;;;;4176650;28;20056;-66
2024/03/19 10:11:38;;;;;;;2.15;1.77;;;;;;;;;;4176566;28;20036;-66
2024/03/19 10:13:39;;;;;;;1.90;1.80;;;;;;;;;;4175933;28;20048;-66
2024/03/19 10:15:40;;;;;;;1.67;1.60;;;;;;;;;;4178444;28;20051;-66
2024/03/19 10:17:40;;;;;;;1.60;1.60;;;;;;;;;;4195312;28;20566;-65
2024/03/19 10:19:41;;;;;;;1.30;1.30;;;;;;;;;;4177607;28;20041;-65
2024/03/19 10:21:43;;;;;;;1.30;1.30;;;;;;;;;;4179150;28;20507;-66
2024/03/19 10:23:44;;;;;;;1.30;1.30;;;;;;;;;;4177241;28;20040;-65
2024/03/19 10:25:50;;;;;;;2.15;1.65;;;;;;;;;;4147194;28;20406;-66
2024/03/19 10:27:51;;;;;;;1.50;1.40;;;;;;;;;;4162759;28;20050;-67
2024/03/19 10:29:52;;;;;;;1.45;1.40;;;;;;;;;;4172507;28;20597;-66
2024/03/19 10:31:52;;;;;;;1.70;1.70;;;;;;;;;;4176479;28;20496;-66
2024/03/19 10:33:56;;;;;;;1.45;1.45;;;;;;;;;;4180050;28;20087;-66
2024/03/19 10:35:58;;;;;;;1.60;1.50;;;;;;;;;;4182610;28;20048;-66
2024/03/19 10:37:59;;;;;;;1.40;1.40;;;;;;;;;;4178309;28;20037;-66
2024/03/19 10:40:02;;;;;;;1.38;1.33;;;;;;;;;;4182015;28;20511;-65
2024/03/19 10:42:06;;;;;;;1.70;1.60;;;;;;;;;;4182049;28;20044;-66
2024/03/19 10:44:12;;;;;;;1.67;1.67;;;;;;;;;;4180846;28;20041;-66
2024/03/19 10:46:13;;;;;;;1.30;1.20;;;;;;;;;;4181103;28;20041;-66
2024/03/19 10:48:15;;;;;;;1.50;1.50;;;;;;;;;;4182780;28;20033;-66
2024/03/19 10:50:16;;;;;;;;;;;;;;;;;;4179813;28;20036;-67
2024/03/19 10:52:19;;;;;;;1.55;1.55;;;;;;;;;;4181457;28;19925;-66
2024/03/19 10:54:21;;;;;;;1.50;1.40;;;;;;;;;;4181532;28;20033;-66
2024/03/19 10:56:24;;;;;;;1.10;1.10;;;;;;;;;;4182517;28;20492;-66
2024/03/19 10:58:24;;;;;;;;;;;;;;;;;;4179317;28;20408;-66
2024/03/19 11:00:26;;;;;;;1.40;1.40;;;;;;;;;;4181530;28;19929;-66
2024/03/19 11:02:27;;;;;;;1.33;1.33;;;;;;;;;;4179986;28;20409;-66
2024/03/19 11:04:28;;;;;;;1.73;1.63;;;;;;;;;;4181301;28;20049;-66
2024/03/19 11:06:29;;;;;;;1.55;1.55;;;;;;;;;;4180069;28;20064;-66
2024/03/19 11:08:29;;;;;;;1.45;1.45;;;;;;;;;;4180719;28;20459;-66
2024/03/19 11:10:35;;;;;;;1.10;1.10;;;;;;;;;;4179234;28;20094;-66
2024/03/19 11:12:35;;;;;;;1.70;1.70;;;;;;;;;;4196018;28;20036;-66
2024/03/19 11:14:37;;;;;;;1.88;1.58;;;;;;;;;;4180986;28;20052;-67
2024/03/19 11:16:38;;;;;;;1.63;1.35;;;;;;;;;;4180648;28;20055;-67
2024/03/19 11:19:05;;;;;;;1.40;1.40;;;;;;;;;;4178567;28;20037;-66
2024/03/19 11:21:13;;;;;;;2.13;1.35;;;;;;;;;;4176194;28;20103;-67
2024/03/19 11:23:15;;;;;;;1.20;1.10;;;;;;;;;;4180102;28;20044;-67
2024/03/19 11:25:16;;;;;;;1.40;1.40;;;;;;;;;;4178114;28;20040;-66
2024/03/19 11:27:20;;;;;;;1.15;1.15;;;;;;;;;;4178540;28;20306;-66
2024/03/19 11:29:23;;;;;;;1.80;1.10;;;;;;;;;;4181756;28;20040;-67
2024/03/19 11:31:35;;;;;;;1.10;1.10;;;;;;;;;;4181043;28;20463;-67
2024/03/19 11:33:37;;;;;;;5.28;2.28;;;;;;;;;;4180730;28;20052;-67
2024/03/19 11:35:38;;;;;;;1.10;1.10;;;;;;;;;;4180110;28;20053;-67
2024/03/19 11:37:38;;;;;;;1.25;1.20;;;;;;;;;;4179871;28;20049;-67
2024/03/19 11:39:39;;;;;;;1.30;1.30;;;;;;;;;;4180047;28;20065;-67
2024/03/19 11:41:43;;;;;;;1.55;1.55;;;;;;;;;;4180736;28;20040;-67
2024/03/19 11:43:46;;;;;;;1.20;1.10;;;;;;;;;;4180639;28;20041;-67
2024/03/19 11:45:48;;;;;;;1.10;1.10;;;;;;;;;;4181584;28;20045;-67
2024/03/19 11:47:49;;;;;;;;;;;;;;;;;;4181627;28;20041;-67
2024/03/19 11:49:50;;;;;;;1.20;1.20;;;;;;;;;;4179505;28;19928;-67
2024/03/19 11:52:00;;;;;;;1.10;1.10;;;;;;;;;;4179541;28;20085;-67
2024/03/19 11:54:01;;;;;;;1.30;1.30;;;;;;;;;;4179643;28;20049;-67
2024/03/19 11:56:02;;;;;;;1.65;1.48;;;;;;;;;;4175812;28;20041;-67